Grande Mariner — WCY6594 — position and weather

sailwx.info

Track history (hours):
 
Tides and Currents Weather Stations Pressure Air Temp Water Temp Dewpoint Dewpoint Depression Visibility Wind Speed Wind Dir Waves Ship Positions

Grande Mariner

Owner: AMERICAN CANADIAN CARIBBEAN LINE INC, WARREN, RI. More information available from US FCC via Universal Licensing System and Coast Guard Vessel Documentation Center.

Last reported at 2016-Jan-17 03:06 UTC. Time now 2016-Feb-10 08:45 UTC.
Position N 26°53' W 080°02'.
Warning: this ship's position is 24 days out of date.

Length 56 m; draft 2 m.

Type: Passenger vessel. MMSI: 369024000.

Date/timePositionNaut miles runAvg speedWind from/ knotsBaromVisibWave heightAir tempDewpointWater temp
2016-Jan-17 03:06N 26°53' W 080°02'5 8.8
2016-Jan-17 02:33N 26°57' W 080°02'  
2016-Jan-14 17:19N 32°03' W 080°33'240 9.9
2016-Jan-13 17:06N 34°29' W 076°46'510.0
2016-Jan-13 16:33N 34°34' W 076°42'9 9.0
2016-Jan-13 15:33N 34°43' W 076°41'1 0.6
2016-Jan-13 14:33N 34°43' W 076°40'0 0.0
2016-Jan-13 13:33N 34°43' W 076°40'0 0.0
2016-Jan-13 12:33N 34°43' W 076°40'0 0.0
2016-Jan-13 11:33N 34°43' W 076°40'0 0.0
2016-Jan-13 10:33N 34°43' W 076°40'0 0.0
2016-Jan-13 09:33N 34°43' W 076°40'0 0.0
2016-Jan-13 08:33N 34°43' W 076°40'0 0.0
2016-Jan-13 07:33N 34°43' W 076°40'0 0.0
2016-Jan-13 06:33N 34°43' W 076°40'0 0.0
2016-Jan-13 05:33N 34°43' W 076°40'0 0.0
2016-Jan-13 04:33N 34°43' W 076°40'0 0.0
2016-Jan-13 03:33N 34°43' W 076°40'0 0.0
2016-Jan-13 02:33N 34°43' W 076°40'0 0.0
2016-Jan-13 01:33N 34°43' W 076°40'0 0.0
2016-Jan-13 00:33N 34°43' W 076°40'0 0.0
2016-Jan-12 23:33N 34°43' W 076°40'0 0.0
2016-Jan-12 22:33N 34°43' W 076°40'0 0.0
2016-Jan-12 21:33N 34°43' W 076°40'0 0.0
2016-Jan-12 20:33N 34°43' W 076°40'0 0.0
2016-Jan-12 19:33N 34°43' W 076°40'0 0.0
2016-Jan-12 18:33N 34°43' W 076°40'0 0.0
2016-Jan-12 17:33N 34°43' W 076°40'0 0.0
2016-Jan-12 16:33N 34°43' W 076°40'0 0.0
2016-Jan-12 15:33N 34°43' W 076°40'0 0.0
2016-Jan-12 14:33N 34°43' W 076°40'0 0.0
2016-Jan-12 13:33N 34°43' W 076°40'7 6.7
2016-Jan-12 12:33N 34°36' W 076°41'136 5.7
2016-Jan-11 12:32N 36°51' W 076°18'0 0.0
2016-Jan-11 11:29N 36°51' W 076°18'0 0.0
2016-Jan-11 10:32N 36°51' W 076°18'0 0.0
2016-Jan-11 09:32N 36°51' W 076°18'0 0.0
2016-Jan-11 08:32N 36°51' W 076°18'0 0.0
2016-Jan-11 07:32N 36°51' W 076°18'0 0.0
2016-Jan-11 06:32N 36°51' W 076°18'0 0.0
2016-Jan-11 05:32N 36°51' W 076°18'0 0.0
2016-Jan-11 04:32N 36°51' W 076°18'0 0.0
2016-Jan-11 03:32N 36°51' W 076°18'0 0.0
2016-Jan-11 02:32N 36°51' W 076°18'0 0.0
2016-Jan-11 01:32N 36°51' W 076°18'0 0.0
2016-Jan-11 00:32N 36°51' W 076°18'0 0.0
2016-Jan-10 23:32N 36°51' W 076°18'0 0.0
2016-Jan-10 22:32N 36°51' W 076°18'0 0.0
2016-Jan-10 21:32N 36°51' W 076°18'0 0.0
2016-Jan-10 20:29N 36°51' W 076°18'0 0.0
2016-Jan-10 19:26N 36°51' W 076°18'0 0.0
2016-Jan-10 18:23N 36°51' W 076°18'1 0.7
2016-Jan-10 17:34N 36°50' W 076°18'0 0.4
2016-Jan-10 16:32N 36°50' W 076°18'1 0.9
2016-Jan-10 15:33N 36°51' W 076°18'0 0.1
2016-Jan-10 14:31N 36°51' W 076°18'0 0.0
2016-Jan-10 13:31N 36°51' W 076°18'0 0.0
2016-Jan-10 12:31N 36°51' W 076°18'0 0.0
2016-Jan-10 11:31N 36°51' W 076°18'0 0.0
2016-Jan-10 10:31N 36°51' W 076°18'0 0.0
2016-Jan-10 09:31N 36°51' W 076°18'0 0.0
2016-Jan-10 08:31N 36°51' W 076°18'0 0.0
2016-Jan-10 07:31N 36°51' W 076°18'0 0.0
2016-Jan-10 06:31N 36°51' W 076°18'0 0.0
2016-Jan-10 05:31N 36°51' W 076°18'0 0.0
2016-Jan-10 04:31N 36°51' W 076°18'0 0.0
2016-Jan-10 03:31N 36°51' W 076°18'0 0.0
2016-Jan-10 02:31N 36°51' W 076°18'0 0.0
2016-Jan-10 01:31N 36°51' W 076°18'0 0.0
2016-Jan-10 00:31N 36°51' W 076°18'0 0.0
2016-Jan-09 23:31N 36°51' W 076°18'0 0.0
2016-Jan-09 22:31N 36°51' W 076°18'0 0.0
2016-Jan-09 21:31N 36°51' W 076°18'0 0.0
2016-Jan-09 20:31N 36°51' W 076°18'0 0.0
2016-Jan-09 19:31N 36°51' W 076°18'0 0.0
2016-Jan-09 18:31N 36°51' W 076°18'0 0.0
2016-Jan-09 17:25N 36°51' W 076°18'0 0.0
2016-Jan-09 16:31N 36°51' W 076°18'0 0.0
2016-Jan-09 15:31N 36°51' W 076°18'0 0.0
2016-Jan-09 14:31N 36°51' W 076°18'0 0.0
2016-Jan-09 13:28N 36°51' W 076°18'0 0.0
2016-Jan-09 12:31N 36°51' W 076°18'0 0.0
2016-Jan-09 11:31N 36°51' W 076°18'0 0.0
2016-Jan-09 10:31N 36°51' W 076°18'0 0.0
2016-Jan-09 09:31N 36°51' W 076°18'0 0.0
2016-Jan-09 08:31N 36°51' W 076°18'0 0.0
2016-Jan-09 07:31N 36°51' W 076°18'0 0.0
2016-Jan-09 06:28N 36°51' W 076°18'0 0.0
2016-Jan-09 05:31N 36°51' W 076°18'0 0.0
2016-Jan-09 04:31N 36°51' W 076°18'0 0.0
2016-Jan-09 03:31N 36°51' W 076°18'0 0.0
2016-Jan-09 02:31N 36°51' W 076°18'0 0.0
2016-Jan-09 01:31N 36°51' W 076°18'0 0.0
2016-Jan-09 00:28N 36°51' W 076°18'0 0.0
2016-Jan-08 23:28N 36°51' W 076°18'0 0.0
2016-Jan-08 22:31N 36°51' W 076°18'0 0.0
2016-Jan-08 21:31N 36°51' W 076°18'0 0.0
2016-Jan-08 20:31N 36°51' W 076°18'0 0.0
2016-Jan-08 19:28N 36°51' W 076°18'0 0.0
2016-Jan-08 18:31N 36°51' W 076°18'0 0.0
2016-Jan-08 17:31N 36°51' W 076°18'3 3.0
2016-Jan-08 16:33N 36°53' W 076°20'184 9.6
2016-Jan-07 21:24N 39°27' W 074°13'8 9.6
2016-Jan-07 20:33N 39°34' W 074°08'1110.6
2016-Jan-07 19:33N 39°44' W 074°03'1110.6
2016-Jan-07 18:33N 39°55' W 074°01'4010.0
2016-Jan-07 14:33N 40°35' W 074°02'1110.6
2016-Jan-07 13:33N 40°45' W 073°58'2510.0
2016-Jan-07 11:04N 40°58' W 073°30'610.9
2016-Jan-07 10:33N 41°00' W 073°23'3410.6
2016-Jan-07 07:20N 41°08' W 072°39'8 9.7
2016-Jan-07 06:29N 41°10' W 072°29'8 8.8
2016-Jan-07 05:33N 41°12' W 072°18'  
Track history (hours):
 
Tides and Currents Weather Stations Pressure Air Temp Water Temp Dewpoint Dewpoint Depression Visibility Wind Speed Wind Dir Waves Ship Positions

Grande Mariner

Owner: AMERICAN CANADIAN CARIBBEAN LINE INC, WARREN, RI. More information available from US FCC via Universal Licensing System and Coast Guard Vessel Documentation Center.

Last reported at 2016-Jan-17 03:06 UTC. Time now 2016-Feb-10 08:45 UTC.
Position N 26°53' W 080°02'.
Warning: this ship's position is 24 days out of date.

Length 56 m; draft 2 m.

Type: Passenger vessel. MMSI: 369024000.

Date/timePositionNaut miles runAvg speedWind from/ knotsBaromVisibWave heightAir tempDewpointWater temp
2016-Jan-17 03:06N 26°53' W 080°02'5 8.8
2016-Jan-17 02:33N 26°57' W 080°02'  
2016-Jan-14 17:19N 32°03' W 080°33'240 9.9
2016-Jan-13 17:06N 34°29' W 076°46'510.0
2016-Jan-13 16:33N 34°34' W 076°42'9 9.0
2016-Jan-13 15:33N 34°43' W 076°41'1 0.6
2016-Jan-13 14:33N 34°43' W 076°40'0 0.0
2016-Jan-13 13:33N 34°43' W 076°40'0 0.0
2016-Jan-13 12:33N 34°43' W 076°40'0 0.0
2016-Jan-13 11:33N 34°43' W 076°40'0 0.0
2016-Jan-13 10:33N 34°43' W 076°40'0 0.0
2016-Jan-13 09:33N 34°43' W 076°40'0 0.0
2016-Jan-13 08:33N 34°43' W 076°40'0 0.0
2016-Jan-13 07:33N 34°43' W 076°40'0 0.0
2016-Jan-13 06:33N 34°43' W 076°40'0 0.0
2016-Jan-13 05:33N 34°43' W 076°40'0 0.0
2016-Jan-13 04:33N 34°43' W 076°40'0 0.0
2016-Jan-13 03:33N 34°43' W 076°40'0 0.0
2016-Jan-13 02:33N 34°43' W 076°40'0 0.0
2016-Jan-13 01:33N 34°43' W 076°40'0 0.0
2016-Jan-13 00:33N 34°43' W 076°40'0 0.0
2016-Jan-12 23:33N 34°43' W 076°40'0 0.0
2016-Jan-12 22:33N 34°43' W 076°40'0 0.0
2016-Jan-12 21:33N 34°43' W 076°40'0 0.0
2016-Jan-12 20:33N 34°43' W 076°40'0 0.0
2016-Jan-12 19:33N 34°43' W 076°40'0 0.0
2016-Jan-12 18:33N 34°43' W 076°40'0 0.0
2016-Jan-12 17:33N 34°43' W 076°40'0 0.0
2016-Jan-12 16:33N 34°43' W 076°40'0 0.0
2016-Jan-12 15:33N 34°43' W 076°40'0 0.0
2016-Jan-12 14:33N 34°43' W 076°40'0 0.0
2016-Jan-12 13:33N 34°43' W 076°40'7 6.7
2016-Jan-12 12:33N 34°36' W 076°41'136 5.7
2016-Jan-11 12:32N 36°51' W 076°18'0 0.0
2016-Jan-11 11:29N 36°51' W 076°18'0 0.0
2016-Jan-11 10:32N 36°51' W 076°18'0 0.0
2016-Jan-11 09:32N 36°51' W 076°18'0 0.0
2016-Jan-11 08:32N 36°51' W 076°18'0 0.0
2016-Jan-11 07:32N 36°51' W 076°18'0 0.0
2016-Jan-11 06:32N 36°51' W 076°18'0 0.0
2016-Jan-11 05:32N 36°51' W 076°18'0 0.0
2016-Jan-11 04:32N 36°51' W 076°18'0 0.0
2016-Jan-11 03:32N 36°51' W 076°18'0 0.0
2016-Jan-11 02:32N 36°51' W 076°18'0 0.0
2016-Jan-11 01:32N 36°51' W 076°18'0 0.0
2016-Jan-11 00:32N 36°51' W 076°18'0 0.0
2016-Jan-10 23:32N 36°51' W 076°18'0 0.0
2016-Jan-10 22:32N 36°51' W 076°18'0 0.0
2016-Jan-10 21:32N 36°51' W 076°18'0 0.0
2016-Jan-10 20:29N 36°51' W 076°18'0 0.0
2016-Jan-10 19:26N 36°51' W 076°18'0 0.0
2016-Jan-10 18:23N 36°51' W 076°18'1 0.7
2016-Jan-10 17:34N 36°50' W 076°18'0 0.4
2016-Jan-10 16:32N 36°50' W 076°18'1 0.9
2016-Jan-10 15:33N 36°51' W 076°18'0 0.1
2016-Jan-10 14:31N 36°51' W 076°18'0 0.0
2016-Jan-10 13:31N 36°51' W 076°18'0 0.0
2016-Jan-10 12:31N 36°51' W 076°18'0 0.0
2016-Jan-10 11:31N 36°51' W 076°18'0 0.0
2016-Jan-10 10:31N 36°51' W 076°18'0 0.0
2016-Jan-10 09:31N 36°51' W 076°18'0 0.0
2016-Jan-10 08:31N 36°51' W 076°18'0 0.0
2016-Jan-10 07:31N 36°51' W 076°18'0 0.0
2016-Jan-10 06:31N 36°51' W 076°18'0 0.0
2016-Jan-10 05:31N 36°51' W 076°18'0 0.0
2016-Jan-10 04:31N 36°51' W 076°18'0 0.0
2016-Jan-10 03:31N 36°51' W 076°18'0 0.0
2016-Jan-10 02:31N 36°51' W 076°18'0 0.0
2016-Jan-10 01:31N 36°51' W 076°18'0 0.0
2016-Jan-10 00:31N 36°51' W 076°18'0 0.0
2016-Jan-09 23:31N 36°51' W 076°18'0 0.0
2016-Jan-09 22:31N 36°51' W 076°18'0 0.0
2016-Jan-09 21:31N 36°51' W 076°18'0 0.0
2016-Jan-09 20:31N 36°51' W 076°18'0 0.0
2016-Jan-09 19:31N 36°51' W 076°18'0 0.0
2016-Jan-09 18:31N 36°51' W 076°18'0 0.0
2016-Jan-09 17:25N 36°51' W 076°18'0 0.0
2016-Jan-09 16:31N 36°51' W 076°18'0 0.0
2016-Jan-09 15:31N 36°51' W 076°18'0 0.0
2016-Jan-09 14:31N 36°51' W 076°18'0 0.0
2016-Jan-09 13:28N 36°51' W 076°18'0 0.0
2016-Jan-09 12:31N 36°51' W 076°18'0 0.0
2016-Jan-09 11:31N 36°51' W 076°18'0 0.0
2016-Jan-09 10:31N 36°51' W 076°18'0 0.0
2016-Jan-09 09:31N 36°51' W 076°18'0 0.0
2016-Jan-09 08:31N 36°51' W 076°18'0 0.0
2016-Jan-09 07:31N 36°51' W 076°18'0 0.0
2016-Jan-09 06:28N 36°51' W 076°18'0 0.0
2016-Jan-09 05:31N 36°51' W 076°18'0 0.0
2016-Jan-09 04:31N 36°51' W 076°18'0 0.0
2016-Jan-09 03:31N 36°51' W 076°18'0 0.0
2016-Jan-09 02:31N 36°51' W 076°18'0 0.0
2016-Jan-09 01:31N 36°51' W 076°18'0 0.0
2016-Jan-09 00:28N 36°51' W 076°18'0 0.0
2016-Jan-08 23:28N 36°51' W 076°18'0 0.0
2016-Jan-08 22:31N 36°51' W 076°18'0 0.0
2016-Jan-08 21:31N 36°51' W 076°18'0 0.0
2016-Jan-08 20:31N 36°51' W 076°18'0 0.0
2016-Jan-08 19:28N 36°51' W 076°18'0 0.0
2016-Jan-08 18:31N 36°51' W 076°18'0 0.0
2016-Jan-08 17:31N 36°51' W 076°18'3 3.0
2016-Jan-08 16:33N 36°53' W 076°20'184 9.6
2016-Jan-07 21:24N 39°27' W 074°13'8 9.6
2016-Jan-07 20:33N 39°34' W 074°08'1110.6
2016-Jan-07 19:33N 39°44' W 074°03'1110.6
2016-Jan-07 18:33N 39°55' W 074°01'4010.0
2016-Jan-07 14:33N 40°35' W 074°02'1110.6
2016-Jan-07 13:33N 40°45' W 073°58'2510.0
2016-Jan-07 11:04N 40°58' W 073°30'610.9
2016-Jan-07 10:33N 41°00' W 073°23'3410.6
2016-Jan-07 07:20N 41°08' W 072°39'8 9.7
2016-Jan-07 06:29N 41°10' W 072°29'8 8.8
2016-Jan-07 05:33N 41°12' W 072°18'  

Dump ship's entire track history